Data for 01/28/2009

Time Sea-Level Adjusted Pressure Absolute Pressure Temperature Relative Humidity Dew Point   
(mb) (inHg) (mb) (inHg) (C) (F) (%) (C) (F)
00:05 1013 29.91 842 24.86 -3.2 26.2 58 -10.4 13.3
00:10 1013 29.91 842 24.86 -3.2 26.2 58 -10.4 13.3
00:15 1013 29.91 842 24.86 -3.3 26 58 -10.5 13.1
00:20 1013 29.91 842 24.86 -3.4 26 57 -10.7 12.8
00:25 1013 29.91 842 24.86 -3.3 26.1 56 -10.9 12.4
00:30 1013 29.91 842 24.86 -3.2 26.2 56 -10.9 12.4
00:35 1013 29.91 843 24.89 -3.2 26.2 56 -10.9 12.4
00:40 1014 29.94 843 24.89 -3.3 26.1 56 -10.9 12.4
00:45 1014 29.94 843 24.89 -3.4 26 57 -10.8 12.6
00:50 1014 29.94 843 24.89 -3.3 26.1 56 -10.8 12.5
00:55 1014 29.94 843 24.89 -3.1 26.4 57 -10.5 13.1
01:00 1014 29.94 843 24.89 -3.2 26.2 58 -10.4 13.4
01:05 1014 29.94 843 24.89 -3.5 25.7 59 -10.5 13.1
01:10 1014 29.94 843 24.89 -3.6 25.5 59 -10.6 13
01:15 1014 29.94 843 24.89 -3.6 25.6 59 -10.5 13.1
01:20 1014 29.94 843 24.89 -3.5 25.7 58 -10.7 12.7
01:25 1014 29.94 844 24.92 -3.2 26.2 57 -10.6 13
01:30 1014 29.94 844 24.92 -3 26.7 58 -10.2 13.7
01:35 1015 29.97 844 24.92 -3 26.6 58 -10.1 13.8
01:40 1014 29.94 844 24.92 -2.9 26.8 56 -10.4 13.3
01:45 1014 29.94 843 24.89 -2.9 26.7 59 -9.9 14.2
01:50 1014 29.94 843 24.89 -3.2 26.3 59 -10.1 13.9
01:55 1014 29.94 843 24.89 -3.2 26.2 59 -10.2 13.7
02:00 1014 29.94 843 24.89 -3 26.6 58 -10 13.9
02:05 1014 29.94 844 24.92 -2.8 27 57 -10.1 13.9
02:10 1014 29.94 844 24.92 -2.8 26.9 58 -9.9 14.2
02:15 1014 29.94 844 24.92 -2.9 26.8 58 -10 14
02:20 1014 29.94 844 24.92 -2.9 26.8 58 -10.1 13.8
02:25 1015 29.97 844 24.92 -3 26.6 57 -10.3 13.5
02:30 1015 29.97 844 24.92 -3.2 26.2 58 -10.3 13.4
02:35 1015 29.97 844 24.92 -3.3 26 58 -10.4 13.3
02:40 1015 29.97 844 24.92 -3.4 25.9 58 -10.5 13
02:45 1015 29.97 844 24.92 -3.4 25.9 58 -10.6 13
02:50 1015 29.97 844 24.92 -3.4 25.9 57 -10.6 12.9
02:55 1015 29.97 844 24.92 -3.2 26.3 57 -10.5 13
03:00 1015 29.97 844 24.92 -3.2 26.3 58 -10.3 13.5
03:05 1015 29.97 844 24.92 -3.3 26 59 -10.2 13.6
03:10 1015 29.97 844 24.92 -3.3 26.1 58 -10.5 13.2
03:15 1015 29.97 844 24.92 -3.1 26.4 56 -10.6 12.9
03:20 1015 29.97 844 24.92 -3.1 26.5 56 -10.7 12.8
03:25 1015 29.97 844 24.92 -3 26.6 56 -10.5 13
03:30 1015 29.97 844 24.92 -3 26.5 57 -10.5 13.1
03:35 1015 29.97 844 24.92 -3.1 26.5 56 -10.5 13
03:40 1015 29.97 844 24.92 -3.1 26.4 56 -10.6 12.9
03:45 1015 29.97 844 24.92 -3.1 26.5 56 -10.6 13
03:50 1015 29.97 844 24.92 -3 26.6 56 -10.7 12.7
03:55 1015 29.97 844 24.92 -2.9 26.8 56 -10.6 12.9
04:00 1015 29.97 844 24.92 -2.9 26.8 54 -10.8 12.5
04:05 1015 29.97 844 24.92 -2.8 26.9 55 -10.6 13
04:10 1015 29.97 844 24.92 -2.9 26.9 56 -10.6 13
04:15 1015 29.97 844 24.92 -2.9 26.8 56 -10.5 13.1
04:20 1015 29.97 844 24.92 -2.9 26.9 56 -10.5 13
04:25 1015 29.97 844 24.92 -2.8 26.9 55 -10.5 13
04:30 1015 29.97 844 24.92 -2.7 27.1 55 -10.5 13.1
04:35 1015 29.97 844 24.92 -2.7 27.1 56 -10.5 13.2
04:40 1015 29.97 844 24.92 -2.8 27 56 -10.3 13.5
04:45 1015 29.97 844 24.92 -2.8 27 56 -10.3 13.5
04:50 1015 29.97 845 24.95 -2.7 27.1 55 -10.6 13
04:55 1015 29.97 844 24.92 -2.6 27.3 56 -10.2 13.7
05:00 1015 29.97 844 24.92 -2.7 27.1 57 -10.2 13.6
05:05 1015 29.97 844 24.92 -2.7 27.2 55 -10.5 13.1
05:10 1015 29.97 844 24.92 -2.3 27.8 51 -11 12.1
05:15 1015 29.97 845 24.95 -2 28.4 52 -10.6 12.9
05:20 1015 29.97 845 24.95 -2.1 28.2 53 -10.5 13.1
05:25 1015 29.97 845 24.95 -2.2 28.1 54 -10.3 13.5
05:30 1016 30 845 24.95 -2.2 28.1 54 -10.3 13.5
05:35 1016 30 845 24.95 -2.2 28 55 -10.2 13.7
05:40 1016 30 845 24.95 -2.3 27.8 56 -9.9 14.2
05:45 1016 30 845 24.95 -2.4 27.6 56 -10 14
05:50 1016 30 845 24.95 -2.5 27.5 57 -10 14.1
05:55 1016 30 845 24.95 -2.5 27.5 56 -10.1 13.8
06:00 1016 30 845 24.95 -2.3 27.9 55 -10.2 13.7
06:05 1016 30 845 24.95 -2.1 28.1 56 -9.8 14.4
06:10 1016 30 845 24.95 -2.2 28.1 56 -9.9 14.1
06:15 1016 30 845 24.95 -2 28.3 56 -9.6 14.7
06:20 1016 30 845 24.95 -2.1 28.2 55 -10 14
06:25 1016 30 845 24.95 -2 28.4 53 -10.3 13.5
06:30 1016 30 845 24.95 -1.9 28.7 53 -10.2 13.7
06:35 1016 30 845 24.95 -1.9 28.6 53 -10.2 13.6
06:40 1016 30 845 24.95 -1.9 28.6 52 -10.4 13.2
06:45 1016 30 845 24.95 -1.8 28.7 52 -10.3 13.4
06:50 1016 30 845 24.95 -1.9 28.6 55 -9.8 14.4
06:55 1016 30 845 24.95 -2.2 28.1 56 -9.8 14.3
07:00 1016 30 845 24.95 -2.2 28.1 55 -10 14
07:05 1016 30 845 24.95 -2.1 28.3 54 -10.1 13.7
07:10 1016 30 845 24.95 -1.8 28.8 52 -10.4 13.3
07:15 1016 30 845 24.95 -1.7 28.9 53 -10.1 13.8
07:20 1016 30 845 24.95 -2 28.5 55 -9.7 14.5
07:25 1016 30 845 24.95 -2.1 28.2 54 -10.1 13.7
07:30 1016 30 845 24.95 -2 28.5 55 -9.9 14.2
07:35 1016 30 845 24.95 -2.1 28.3 55 -10.1 13.9
07:40 1016 30 845 24.95 -2.1 28.2 55 -9.9 14.1
07:45 1016 30 845 24.95 -2.1 28.2 56 -9.8 14.3
07:50 1016 30 845 24.95 -2.1 28.2 56 -9.7 14.5
07:55 1016 30 845 24.95 -2.2 28 55 -10 13.9
08:00 1016 30 845 24.95 -2 28.4 50 -11.2 11.8
08:05 1016 30 845 24.95 -1.7 29 48 -11.4 11.6
08:10 1016 30 846 24.98 -1.5 29.4 49 -10.9 12.4
08:15 1017 30.03 846 24.98 -1.6 29 53 -10.1 13.9
08:20 1017 30.03 846 24.98 -1.9 28.5 56 -9.7 14.6
08:25 1017 30.03 846 24.98 -2.2 28 57 -9.6 14.7
08:30 1017 30.03 846 24.98 -2.2 28 55 -10 14
08:35 1017 30.03 846 24.98 -2.1 28.3 53 -10.3 13.4
08:40 1017 30.03 846 24.98 -1.9 28.6 53 -10.2 13.7
08:45 1017 30.03 846 24.98 -2 28.4 55 -9.9 14.1
08:50 1017 30.03 846 24.98 -2.1 28.2 55 -10 14.1
08:55 1017 30.03 846 24.98 -2.1 28.2 50 -11.3 11.7
09:00 1017 30.03 846 24.98 -1.6 29.1 48 -11.3 11.6
09:05 1017 30.03 847 25.01 -1.4 29.4 47 -11.2 11.8
09:10 1017 30.03 847 25.01 -1.4 29.4 48 -11.2 11.9
09:15 1018 30.06 847 25.01 -1.5 29.3 48 -11 12.2
09:20 1018 30.06 847 25.01 -1.6 29.2 49 -10.9 12.4
09:25 1018 30.06 847 25.01 -1.7 29 48 -11.3 11.7
09:30 1018 30.06 847 25.01 -1.6 29.2 49 -11 12.2
09:35 1018 30.06 847 25.01 -1.5 29.2 50 -10.7 12.7
09:40 1018 30.06 847 25.01 -1.6 29.1 51 -10.4 13.3
09:45 1018 30.06 847 25.01 -1.6 29.1 52 -10.2 13.7
09:50 1018 30.06 847 25.01 -1.6 29 52 -10.3 13.4
09:55 1018 30.06 847 25.01 -1.6 29.1 52 -10.1 13.8
10:00 1018 30.06 847 25.01 -1.6 29.2 54 -9.7 14.5
10:05 1018 30.06 847 25.01 -1.5 29.3 52 -10 14
10:10 1018 30.06 847 25.01 -1.4 29.4 53 -9.7 14.5
10:15 1018 30.06 847 25.01 -1.4 29.5 52 -9.9 14.1
10:20 1018 30.06 847 25.01 -1.3 29.7 51 -10.1 13.8
10:25 1018 30.06 847 25.01 -1.3 29.7 51 -10.2 13.6
10:30 1018 30.06 847 25.01 -1.2 29.9 50 -10.4 13.3
10:35 1018 30.06 848 25.04 -1.1 30.1 50 -10.2 13.6
10:40 1018 30.06 848 25.04 -1 30.1 52 -9.6 14.6
10:45 1018 30.06 848 25.04 -1 30.3 54 -9.2 15.4
10:50 1019 30.09 848 25.04 -0.9 30.4 54 -9.1 15.6
10:55 1019 30.09 848 25.04 -0.8 30.5 54 -9 15.9
11:00 1019 30.09 848 25.04 -0.7 30.8 52 -9.3 15.2
11:05 1019 30.09 848 25.04 -0.4 31.3 52 -9.1 15.6
11:10 1019 30.09 848 25.04 -0.3 31.5 50 -9.5 14.9
11:15 1019 30.09 848 25.04 -0.4 31.3 48 -10.1 13.8
11:20 1019 30.09 848 25.04 -0.4 31.2 47 -10.3 13.4
11:25 1019 30.09 848 25.04 -0.5 31.2 47 -10.5 13
11:30 1018 30.06 848 25.04 -0.6 31 46 -10.8 12.5
11:35 1018 30.06 848 25.04 -0.6 30.9 47 -10.7 12.8
11:40 1018 30.06 848 25.04 -0.5 31 47 -10.5 13
11:45 1018 30.06 848 25.04 -0.6 31 48 -10.4 13.3
11:50 1018 30.06 848 25.04 -0.6 31 48 -10.2 13.6
11:55 1018 30.06 848 25.04 -0.5 31.1 48 -10.4 13.3
12:00 1018 30.06 848 25.04 -0.4 31.3 46 -10.6 12.9
12:05 1018 30.06 848 25.04 -0.4 31.3 48 -10.2 13.6
12:10 1018 30.06 847 25.01 -0.3 31.5 47 -10.2 13.7
12:15 1018 30.06 847 25.01 -0.2 31.7 48 -9.9 14.2
12:20 1018 30.06 847 25.01 -0.1 31.8 47 -10.1 13.8
12:25 1018 30.06 847 25.01 -0.1 31.8 46 -10.4 13.3
12:30 1018 30.06 847 25.01 -0.1 31.8 47 -10.1 13.8
12:35 1018 30.06 847 25.01 -0.1 31.9 47 -10 13.9
12:40 1018 30.06 847 25.01 0 32 48 -9.8 14.3
12:45 1018 30.06 847 25.01 0.1 32.1 47 -9.9 14.2
12:50 1018 30.06 847 25.01 -0 32 48 -9.8 14.3
12:55 1018 30.06 847 25.01 -0.1 31.8 49 -9.6 14.7
13:00 1018 30.06 847 25.01 0 32 47 -9.9 14.1
13:05 1018 30.06 847 25.01 0.1 32.1 49 -9.4 15.1
13:10 1018 30.06 847 25.01 0 32.1 47 -9.9 14.1
13:15 1018 30.06 847 25.01 0.1 32.2 47 -10 14
13:20 1018 30.06 847 25.01 0.1 32.3 47 -10 14
13:25 1018 30.06 847 25.01 0.1 32.2 47 -9.8 14.4
13:30 1018 30.06 847 25.01 0.1 32.1 48 -9.7 14.6
13:35 1018 30.06 847 25.01 0.2 32.3 48 -9.6 14.7
13:40 1018 30.06 847 25.01 0.2 32.3 47 -9.9 14.2
13:45 1018 30.06 847 25.01 0.3 32.6 46 -9.9 14.1
13:50 1018 30.06 847 25.01 0.4 32.7 47 -9.8 14.4
13:55 1018 30.06 847 25.01 0.6 33 46 -9.9 14.2
14:00 1018 30.06 847 25.01 0.5 33 47 -9.6 14.7
14:05 1018 30.06 847 25.01 0.5 32.9 47 -9.5 14.9
14:10 1018 30.06 847 25.01 0.5 33 47 -9.5 14.8
14:15 1018 30.06 847 25.01 0.9 33.5 47 -9.3 15.2
14:20 1018 30.06 847 25.01 0.9 33.6 46 -9.4 15.1
14:25 1018 30.06 847 25.01 1 33.9 45 -9.7 14.6
14:30 1018 30.06 847 25.01 0.8 33.4 43 -10.6 13
14:35 1018 30.06 847 25.01 0.8 33.4 43 -10.4 13.3
14:40 1018 30.06 847 25.01 0.6 33.1 46 -9.8 14.4
14:45 1018 30.06 847 25.01 0.5 32.9 45 -10 13.9
14:50 1018 30.06 847 25.01 0.3 32.5 45 -10.3 13.5
14:55 1018 30.06 847 25.01 0.3 32.5 45 -10.2 13.7
15:00 1018 30.06 847 25.01 0.4 32.7 46 -9.8 14.3
15:05 1018 30.06 847 25.01 0.4 32.7 46 -10 14.1
15:10 1018 30.06 847 25.01 0.3 32.5 45 -10.3 13.4
15:15 1018 30.06 848 25.04 0.1 32.2 44 -10.7 12.8
15:20 1018 30.06 848 25.04 0 32.1 45 -10.7 12.8
15:25 1018 30.06 848 25.04 0 32 44 -10.9 12.4
15:30 1018 30.06 848 25.04 -0 31.9 45 -10.6 13
15:35 1018 30.06 848 25.04 -0.1 31.9 44 -10.8 12.6
15:40 1019 30.09 848 25.04 -0.1 31.8 43 -11.1 12
15:45 1019 30.09 848 25.04 -0.2 31.7 45 -10.8 12.5
15:50 1019 30.09 848 25.04 -0.2 31.6 44 -11.1 12.1
15:55 1019 30.09 848 25.04 -0.2 31.7 45 -10.7 12.8
16:00 1019 30.09 848 25.04 -0.2 31.7 45 -10.7 12.8
16:05 1019 30.09 848 25.04 -0.2 31.6 44 -11 12.1
16:10 1019 30.09 848 25.04 -0.3 31.5 44 -11 12.1
16:15 1019 30.09 848 25.04 -0.4 31.3 47 -10.3 13.4
16:20 1019 30.09 848 25.04 -0.4 31.2 46 -10.6 13
16:25 1019 30.09 848 25.04 -0.4 31.2 48 -10.3 13.5
16:30 1019 30.09 848 25.04 -0.5 31.2 48 -10.3 13.5
16:35 1019 30.09 848 25.04 -0.5 31.1 47 -10.5 13.2
16:40 1019 30.09 848 25.04 -0.5 31 47 -10.4 13.3
16:45 1019 30.09 848 25.04 -0.6 30.9 48 -10.4 13.3
16:50 1019 30.09 848 25.04 -0.7 30.8 45 -11.1 12
16:55 1019 30.09 848 25.04 -0.7 30.8 44 -11.4 11.5
17:00 1019 30.09 848 25.04 -0.7 30.8 45 -11.3 11.7
17:05 1019 30.09 849 25.07 -0.7 30.8 45 -11.2 11.9
17:10 1019 30.09 849 25.07 -0.7 30.8 44 -11.4 11.5
17:15 1020 30.12 849 25.07 -0.7 30.7 45 -11.1 12
17:20 1020 30.12 849 25.07 -0.8 30.6 45 -11.3 11.6
17:25 1020 30.12 849 25.07 -0.8 30.6 45 -11.3 11.7
17:30 1020 30.12 849 25.07 -0.8 30.6 46 -11.1 12
17:35 1020 30.12 849 25.07 -0.8 30.5 47 -10.9 12.4
17:40 1020 30.12 849 25.07 -0.9 30.4 48 -10.7 12.8
17:45 1020 30.12 849 25.07 -1 30.2 49 -10.5 13.1
17:50 1020 30.12 849 25.07 -1.1 30 49 -10.4 13.2
17:55 1020 30.12 849 25.07 -1.3 29.7 49 -10.6 12.9
18:00 1020 30.12 849 25.07 -1.3 29.7 48 -11 12.2
18:05 1020 30.12 849 25.07 -1.3 29.7 46 -11.6 11.2
18:10 1020 30.12 849 25.07 -1.2 29.8 46 -11.3 11.6
18:15 1020 30.12 849 25.07 -1.3 29.7 46 -11.4 11.5
18:20 1020 30.12 849 25.07 -1.4 29.6 46 -11.4 11.4
18:25 1020 30.12 849 25.07 -1.4 29.4 47 -11.3 11.7
18:30 1020 30.12 850 25.1 -1.4 29.5 47 -11.3 11.6
18:35 1020 30.12 850 25.1 -1.5 29.4 47 -11.4 11.5
18:40 1020 30.12 850 25.1 -1.5 29.3 48 -11.1 12
18:45 1021 30.15 850 25.1 -1.5 29.3 47 -11.5 11.3
18:50 1021 30.15 850 25.1 -1.5 29.3 48 -11.3 11.7
18:55 1021 30.15 850 25.1 -1.5 29.2 49 -10.8 12.5
19:00 1021 30.15 850 25.1 -1.7 29 51 -10.6 13
19:05 1021 30.15 850 25.1 -1.9 28.6 52 -10.6 13
19:10 1021 30.15 850 25.1 -2 28.4 52 -10.7 12.8
19:15 1021 30.15 850 25.1 -2 28.4 52 -10.7 12.7
19:20 1021 30.15 850 25.1 -2 28.4 52 -10.5 13
19:25 1021 30.15 850 25.1 -2.1 28.2 53 -10.6 13
19:30 1021 30.15 850 25.1 -2.2 28.1 54 -10.3 13.4
19:35 1021 30.15 850 25.1 -2.2 28.1 54 -10.3 13.4
19:40 1021 30.15 850 25.1 -2.2 28 55 -10.1 13.9
19:45 1021 30.15 850 25.1 -2.3 27.9 54 -10.4 13.2
19:50 1021 30.15 850 25.1 -2.1 28.3 54 -10.3 13.4
19:55 1021 30.15 850 25.1 -2 28.5 54 -10.1 13.8
20:00 1021 30.15 850 25.1 -1.9 28.5 55 -9.9 14.2
20:05 1021 30.15 851 25.13 -2.1 28.3 56 -9.8 14.3
20:10 1021 30.15 851 25.13 -2.2 28.1 57 -9.6 14.8
20:15 1022 30.18 851 25.13 -2.3 27.9 58 -9.5 14.9
20:20 1022 30.18 851 25.13 -2.2 28 56 -9.8 14.3
20:25 1022 30.18 851 25.13 -2.2 28 56 -9.9 14.1
20:30 1022 30.18 851 25.13 -2.3 27.9 56 -9.8 14.3
20:35 1022 30.18 851 25.13 -2.3 27.9 56 -9.9 14.2
20:40 1022 30.18 851 25.13 -2.4 27.8 56 -10 14
20:45 1022 30.18 851 25.13 -2.4 27.7 57 -9.9 14.2
20:50 1022 30.18 851 25.13 -2.5 27.5 55 -10.2 13.6
20:55 1022 30.18 851 25.13 -2.5 27.5 56 -10 14
21:00 1022 30.18 851 25.13 -2.6 27.4 56 -10.2 13.6
21:05 1022 30.18 851 25.13 -2.6 27.4 56 -10.2 13.6
21:10 1022 30.18 851 25.13 -2.6 27.4 56 -10.2 13.6
21:15 1022 30.18 851 25.13 -2.6 27.3 55 -10.4 13.3
21:20 1022 30.18 851 25.13 -2.7 27.2 55 -10.4 13.3
21:25 1022 30.18 851 25.13 -2.7 27.1 56 -10.3 13.5
21:30 1022 30.18 851 25.13 -2.8 27 57 -10.3 13.5
21:35 1022 30.18 852 25.16 -2.8 26.9 57 -10.3 13.5
21:40 1022 30.18 852 25.16 -2.9 26.8 57 -10.2 13.6
21:45 1022 30.18 852 25.16 -2.9 26.8 58 -10.1 13.8
21:50 1023 30.21 852 25.16 -2.9 26.7 57 -10.2 13.6
21:55 1023 30.21 852 25.16 -3 26.5 58 -10.3 13.5
22:00 1023 30.21 852 25.16 -3.1 26.5 57 -10.5 13.1
22:05 1023 30.21 852 25.16 -3.1 26.5 57 -10.5 13
22:10 1023 30.21 852 25.16 -3.1 26.5 57 -10.5 13.2
22:15 1023 30.21 852 25.16 -3.1 26.3 57 -10.6 13
22:20 1023 30.21 852 25.16 -3.2 26.2 58 -10.4 13.2
22:25 1023 30.21 852 25.16 -3.2 26.2 58 -10.4 13.3
22:30 1023 30.21 852 25.16 -3.3 26.1 57 -10.5 13
22:35 1023 30.21 852 25.16 -3.3 26 58 -10.5 13.1
22:40 1023 30.21 852 25.16 -3.4 26 58 -10.5 13.1
22:45 1023 30.21 852 25.16 -3.4 25.9 58 -10.4 13.2
22:50 1023 30.21 852 25.16 -3.5 25.8 57 -10.7 12.8
22:55 1023 30.21 852 25.16 -3.4 25.8 58 -10.5 13.1
23:00 1023 30.21 852 25.16 -3.5 25.6 58 -10.6 12.8
23:05 1023 30.21 852 25.16 -3.6 25.6 59 -10.5 13.1
23:10 1023 30.21 852 25.16 -3.6 25.5 59 -10.4 13.2
23:15 1023 30.21 852 25.16 -3.7 25.4 60 -10.3 13.5
23:20 1023 30.21 852 25.16 -3.7 25.3 60 -10.5 13.1
23:25 1023 30.21 852 25.16 -3.7 25.3 59 -10.5 13
23:30 1023 30.21 852 25.16 -3.7 25.3 59 -10.6 13
23:35 1023 30.21 853 25.19 -3.8 25.1 60 -10.5 13
23:40 1023 30.21 853 25.19 -3.8 25.1 59 -10.6 12.9
23:45 1023 30.21 853 25.19 -3.7 25.4 58 -10.8 12.6
23:50 1023 30.21 852 25.16 -3.6 25.6 59 -10.6 13
23:55 1023 30.21 852 25.16 -3.6 25.5 58 -10.8 12.6
24:00 1023 30.21 852 25.16 -3.4 25.8 57 -10.8 12.6